sensor_id;sensor_type;location;lat;lon;timestamp;P1;durP1;ratioP1;P2;durP2;ratioP2
24157;SDS011;12316;50.904;4.200;2023-02-01T00:01:45;34.05;;;11.15;;
24157;SDS011;12316;50.904;4.200;2023-02-01T00:04:10;31.90;;;11.25;;
24157;SDS011;12316;50.904;4.200;2023-02-01T00:06:36;36.25;;;11.23;;
24157;SDS011;12316;50.904;4.200;2023-02-01T00:09:02;27.17;;;11.40;;
24157;SDS011;12316;50.904;4.200;2023-02-01T00:11:28;34.33;;;11.57;;
24157;SDS011;12316;50.904;4.200;2023-02-01T00:13:54;34.83;;;11.43;;
24157;SDS011;12316;50.904;4.200;2023-02-01T00:16:26;34.30;;;11.02;;
24157;SDS011;12316;50.904;4.200;2023-02-01T00:18:58;32.08;;;10.77;;
24157;SDS011;12316;50.904;4.200;2023-02-01T00:21:35;30.08;;;9.30;;
24157;SDS011;12316;50.904;4.200;2023-02-01T00:24:01;31.40;;;9.23;;
24157;SDS011;12316;50.904;4.200;2023-02-01T00:26:30;25.77;;;8.20;;
24157;SDS011;12316;50.904;4.200;2023-02-01T00:28:59;31.87;;;7.50;;
24157;SDS011;12316;50.904;4.200;2023-02-01T00:31:25;32.92;;;8.25;;
24157;SDS011;12316;50.904;4.200;2023-02-01T00:33:51;23.92;;;6.70;;
24157;SDS011;12316;50.904;4.200;2023-02-01T00:36:16;25.52;;;6.00;;
24157;SDS011;12316;50.904;4.200;2023-02-01T00:38:42;26.48;;;6.60;;
24157;SDS011;12316;50.904;4.200;2023-02-01T00:41:18;24.48;;;5.50;;
24157;SDS011;12316;50.904;4.200;2023-02-01T00:43:44;25.45;;;5.93;;
24157;SDS011;12316;50.904;4.200;2023-02-01T00:46:11;22.38;;;5.32;;
24157;SDS011;12316;50.904;4.200;2023-02-01T00:48:38;23.83;;;4.88;;
24157;SDS011;12316;50.904;4.200;2023-02-01T00:51:08;19.17;;;4.55;;
24157;SDS011;12316;50.904;4.200;2023-02-01T00:53:36;21.65;;;4.55;;
24157;SDS011;12316;50.904;4.200;2023-02-01T00:56:02;23.30;;;4.95;;
24157;SDS011;12316;50.904;4.200;2023-02-01T00:58:27;22.33;;;4.18;;
24157;SDS011;12316;50.904;4.200;2023-02-01T01:03:30;22.05;;;4.20;;
24157;SDS011;12316;50.904;4.200;2023-02-01T01:05:58;20.63;;;5.00;;
24157;SDS011;12316;50.904;4.200;2023-02-01T01:08:26;21.10;;;5.03;;
24157;SDS011;12316;50.904;4.200;2023-02-01T01:10:52;21.60;;;4.57;;
24157;SDS011;12316;50.904;4.200;2023-02-01T01:13:17;23.40;;;5.15;;
24157;SDS011;12316;50.904;4.200;2023-02-01T01:15:43;23.75;;;4.97;;
24157;SDS011;12316;50.904;4.200;2023-02-01T01:18:08;21.95;;;5.55;;
24157;SDS011;12316;50.904;4.200;2023-02-01T01:20:35;20.63;;;5.18;;
24157;SDS011;12316;50.904;4.200;2023-02-01T01:23:02;25.00;;;5.22;;
24157;SDS011;12316;50.904;4.200;2023-02-01T01:25:27;22.13;;;5.43;;
24157;SDS011;12316;50.904;4.200;2023-02-01T01:27:53;23.13;;;5.97;;
24157;SDS011;12316;50.904;4.200;2023-02-01T01:30:18;23.17;;;5.35;;
24157;SDS011;12316;50.904;4.200;2023-02-01T01:32:44;20.58;;;5.38;;
24157;SDS011;12316;50.904;4.200;2023-02-01T01:35:10;26.98;;;5.85;;
24157;SDS011;12316;50.904;4.200;2023-02-01T01:37:36;21.00;;;5.53;;
24157;SDS011;12316;50.904;4.200;2023-02-01T01:40:05;22.88;;;5.50;;
24157;SDS011;12316;50.904;4.200;2023-02-01T01:42:36;25.17;;;5.45;;
24157;SDS011;12316;50.904;4.200;2023-02-01T01:47:52;24.13;;;5.20;;
24157;SDS011;12316;50.904;4.200;2023-02-01T01:50:45;19.23;;;4.97;;
24157;SDS011;12316;50.904;4.200;2023-02-01T01:53:19;20.67;;;5.15;;
24157;SDS011;12316;50.904;4.200;2023-02-01T01:55:48;25.60;;;5.70;;
24157;SDS011;12316;50.904;4.200;2023-02-01T01:58:18;20.90;;;4.75;;
24157;SDS011;12316;50.904;4.200;2023-02-01T02:00:46;24.70;;;5.00;;
24157;SDS011;12316;50.904;4.200;2023-02-01T02:03:24;21.23;;;5.35;;
24157;SDS011;12316;50.904;4.200;2023-02-01T02:05:54;20.85;;;4.82;;
24157;SDS011;12316;50.904;4.200;2023-02-01T02:08:22;15.18;;;4.35;;
24157;SDS011;12316;50.904;4.200;2023-02-01T02:10:50;29.30;;;5.28;;
24157;SDS011;12316;50.904;4.200;2023-02-01T02:13:40;23.77;;;5.10;;
24157;SDS011;12316;50.904;4.200;2023-02-01T02:35:26;20.48;;;4.63;;
24157;SDS011;12316;50.904;4.200;2023-02-01T02:41:48;21.90;;;4.82;;
24157;SDS011;12316;50.904;4.200;2023-02-01T02:44:21;21.10;;;4.80;;
24157;SDS011;12316;50.904;4.200;2023-02-01T02:48:00;21.17;;;4.32;;
24157;SDS011;12316;50.904;4.200;2023-02-01T02:53:29;20.80;;;4.47;;
24157;SDS011;12316;50.904;4.200;2023-02-01T02:56:13;21.33;;;4.40;;
24157;SDS011;12316;50.904;4.200;2023-02-01T02:58:58;19.90;;;4.75;;
24157;SDS011;12316;50.904;4.200;2023-02-01T03:01:43;22.88;;;4.15;;
24157;SDS011;12316;50.904;4.200;2023-02-01T03:04:28;16.83;;;4.57;;
24157;SDS011;12316;50.904;4.200;2023-02-01T03:06:53;27.67;;;5.13;;
24157;SDS011;12316;50.904;4.200;2023-02-01T03:09:24;26.92;;;4.60;;
24157;SDS011;12316;50.904;4.200;2023-02-01T03:11:56;24.58;;;4.30;;
24157;SDS011;12316;50.904;4.200;2023-02-01T03:14:49;22.52;;;4.55;;
24157;SDS011;12316;50.904;4.200;2023-02-01T03:17:21;23.52;;;4.40;;
24157;SDS011;12316;50.904;4.200;2023-02-01T03:22:22;20.40;;;4.72;;
24157;SDS011;12316;50.904;4.200;2023-02-01T03:24:54;20.30;;;4.03;;
24157;SDS011;12316;50.904;4.200;2023-02-01T03:33:14;25.42;;;4.22;;
24157;SDS011;12316;50.904;4.200;2023-02-01T03:46:51;24.20;;;4.45;;
24157;SDS011;12316;50.904;4.200;2023-02-01T03:49:34;19.77;;;4.18;;
24157;SDS011;12316;50.904;4.200;2023-02-01T03:52:01;22.05;;;4.35;;
24157;SDS011;12316;50.904;4.200;2023-02-01T03:54:30;22.60;;;4.47;;
24157;SDS011;12316;50.904;4.200;2023-02-01T03:56:57;20.10;;;4.00;;
24157;SDS011;12316;50.904;4.200;2023-02-01T03:59:28;24.73;;;4.22;;
24157;SDS011;12316;50.904;4.200;2023-02-01T04:01:54;22.73;;;3.60;;
24157;SDS011;12316;50.904;4.200;2023-02-01T04:04:20;19.70;;;4.43;;
24157;SDS011;12316;50.904;4.200;2023-02-01T04:06:46;25.50;;;4.10;;
24157;SDS011;12316;50.904;4.200;2023-02-01T04:09:14;24.08;;;4.53;;
24157;SDS011;12316;50.904;4.200;2023-02-01T04:11:39;19.25;;;4.15;;
24157;SDS011;12316;50.904;4.200;2023-02-01T04:14:05;24.33;;;3.90;;
24157;SDS011;12316;50.904;4.200;2023-02-01T04:16:31;24.88;;;4.65;;
24157;SDS011;12316;50.904;4.200;2023-02-01T04:18:57;26.10;;;4.30;;
24157;SDS011;12316;50.904;4.200;2023-02-01T04:21:23;22.45;;;4.28;;
24157;SDS011;12316;50.904;4.200;2023-02-01T04:23:49;21.85;;;3.72;;
24157;SDS011;12316;50.904;4.200;2023-02-01T04:26:15;24.60;;;4.25;;
24157;SDS011;12316;50.904;4.200;2023-02-01T04:28:41;22.92;;;4.65;;
24157;SDS011;12316;50.904;4.200;2023-02-01T04:31:07;18.17;;;3.70;;
24157;SDS011;12316;50.904;4.200;2023-02-01T04:33:32;21.45;;;4.05;;
24157;SDS011;12316;50.904;4.200;2023-02-01T04:35:58;26.77;;;4.15;;
24157;SDS011;12316;50.904;4.200;2023-02-01T04:38:24;21.10;;;3.80;;
24157;SDS011;12316;50.904;4.200;2023-02-01T04:40:49;18.73;;;3.70;;
24157;SDS011;12316;50.904;4.200;2023-02-01T04:43:16;24.75;;;4.10;;
24157;SDS011;12316;50.904;4.200;2023-02-01T04:45:46;20.67;;;4.00;;
24157;SDS011;12316;50.904;4.200;2023-02-01T04:48:15;19.35;;;4.10;;
24157;SDS011;12316;50.904;4.200;2023-02-01T04:50:42;23.58;;;4.07;;
24157;SDS011;12316;50.904;4.200;2023-02-01T04:53:10;26.17;;;4.80;;
24157;SDS011;12316;50.904;4.200;2023-02-01T04:55:36;26.17;;;4.75;;
24157;SDS011;12316;50.904;4.200;2023-02-01T04:58:02;26.77;;;4.40;;
24157;SDS011;12316;50.904;4.200;2023-02-01T05:00:27;20.45;;;3.67;;
24157;SDS011;12316;50.904;4.200;2023-02-01T05:02:54;23.90;;;4.40;;
24157;SDS011;12316;50.904;4.200;2023-02-01T05:05:19;23.33;;;4.05;;
24157;SDS011;12316;50.904;4.200;2023-02-01T05:07:45;30.35;;;4.32;;
24157;SDS011;12316;50.904;4.200;2023-02-01T05:10:12;18.95;;;4.13;;
24157;SDS011;12316;50.904;4.200;2023-02-01T05:12:38;23.63;;;4.00;;
24157;SDS011;12316;50.904;4.200;2023-02-01T05:15:22;27.33;;;4.55;;
24157;SDS011;12316;50.904;4.200;2023-02-01T05:17:48;22.77;;;4.10;;
24157;SDS011;12316;50.904;4.200;2023-02-01T05:20:13;21.90;;;3.80;;
24157;SDS011;12316;50.904;4.200;2023-02-01T05:22:41;19.88;;;3.65;;
24157;SDS011;12316;50.904;4.200;2023-02-01T05:25:07;23.42;;;4.13;;
24157;SDS011;12316;50.904;4.200;2023-02-01T05:27:33;24.17;;;3.85;;
24157;SDS011;12316;50.904;4.200;2023-02-01T05:29:58;33.72;;;4.28;;
24157;SDS011;12316;50.904;4.200;2023-02-01T05:32:24;18.73;;;3.95;;
24157;SDS011;12316;50.904;4.200;2023-02-01T05:34:49;22.20;;;3.50;;
24157;SDS011;12316;50.904;4.200;2023-02-01T05:37:15;23.15;;;3.95;;
24157;SDS011;12316;50.904;4.200;2023-02-01T05:39:41;27.88;;;4.15;;
24157;SDS011;12316;50.904;4.200;2023-02-01T05:42:06;25.70;;;4.13;;
24157;SDS011;12316;50.904;4.200;2023-02-01T05:44:32;31.83;;;4.00;;
24157;SDS011;12316;50.904;4.200;2023-02-01T05:46:57;22.92;;;4.30;;
24157;SDS011;12316;50.904;4.200;2023-02-01T05:49:23;19.38;;;4.15;;
24157;SDS011;12316;50.904;4.200;2023-02-01T05:51:48;22.65;;;3.97;;
24157;SDS011;12316;50.904;4.200;2023-02-01T05:54:14;27.25;;;3.90;;
24157;SDS011;12316;50.904;4.200;2023-02-01T05:56:40;23.35;;;3.67;;
24157;SDS011;12316;50.904;4.200;2023-02-01T05:59:05;26.25;;;4.30;;
24157;SDS011;12316;50.904;4.200;2023-02-01T06:01:31;23.75;;;3.92;;
24157;SDS011;12316;50.904;4.200;2023-02-01T06:03:57;24.70;;;3.75;;
24157;SDS011;12316;50.904;4.200;2023-02-01T06:06:22;25.40;;;3.80;;
24157;SDS011;12316;50.904;4.200;2023-02-01T06:08:48;23.05;;;4.25;;
24157;SDS011;12316;50.904;4.200;2023-02-01T06:11:13;25.58;;;4.30;;
24157;SDS011;12316;50.904;4.200;2023-02-01T06:13:39;26.42;;;4.70;;
24157;SDS011;12316;50.904;4.200;2023-02-01T06:16:05;30.83;;;4.55;;
24157;SDS011;12316;50.904;4.200;2023-02-01T06:18:32;19.95;;;3.92;;
24157;SDS011;12316;50.904;4.200;2023-02-01T06:21:00;26.45;;;4.25;;
24157;SDS011;12316;50.904;4.200;2023-02-01T06:23:26;24.27;;;4.50;;
24157;SDS011;12316;50.904;4.200;2023-02-01T06:25:57;25.67;;;4.15;;
24157;SDS011;12316;50.904;4.200;2023-02-01T06:28:24;27.13;;;4.00;;
24157;SDS011;12316;50.904;4.200;2023-02-01T06:30:50;23.73;;;4.80;;
24157;SDS011;12316;50.904;4.200;2023-02-01T06:33:16;24.15;;;3.80;;
24157;SDS011;12316;50.904;4.200;2023-02-01T06:35:42;25.25;;;4.18;;
24157;SDS011;12316;50.904;4.200;2023-02-01T06:38:09;26.23;;;3.80;;
24157;SDS011;12316;50.904;4.200;2023-02-01T06:40:36;26.25;;;4.10;;
24157;SDS011;12316;50.904;4.200;2023-02-01T06:43:04;23.45;;;4.25;;
24157;SDS011;12316;50.904;4.200;2023-02-01T06:45:30;18.13;;;4.00;;
24157;SDS011;12316;50.904;4.200;2023-02-01T06:47:55;17.75;;;3.83;;
24157;SDS011;12316;50.904;4.200;2023-02-01T06:50:21;23.13;;;4.00;;
24157;SDS011;12316;50.904;4.200;2023-02-01T06:52:46;28.58;;;4.20;;
24157;SDS011;12316;50.904;4.200;2023-02-01T06:55:12;20.10;;;4.15;;
24157;SDS011;12316;50.904;4.200;2023-02-01T06:57:38;25.58;;;4.68;;
24157;SDS011;12316;50.904;4.200;2023-02-01T07:00:05;22.85;;;4.15;;
24157;SDS011;12316;50.904;4.200;2023-02-01T07:02:31;18.58;;;3.85;;
24157;SDS011;12316;50.904;4.200;2023-02-01T07:04:56;22.30;;;4.40;;
24157;SDS011;12316;50.904;4.200;2023-02-01T07:07:22;24.50;;;4.32;;
24157;SDS011;12316;50.904;4.200;2023-02-01T07:09:48;27.67;;;4.53;;
24157;SDS011;12316;50.904;4.200;2023-02-01T07:12:14;22.02;;;4.28;;
24157;SDS011;12316;50.904;4.200;2023-02-01T07:14:41;22.85;;;4.63;;
24157;SDS011;12316;50.904;4.200;2023-02-01T07:17:07;24.42;;;4.03;;
24157;SDS011;12316;50.904;4.200;2023-02-01T07:19:33;25.35;;;4.40;;
24157;SDS011;12316;50.904;4.200;2023-02-01T07:21:58;27.90;;;4.85;;
24157;SDS011;12316;50.904;4.200;2023-02-01T07:24:24;27.20;;;4.45;;
24157;SDS011;12316;50.904;4.200;2023-02-01T07:26:50;29.80;;;4.68;;
24157;SDS011;12316;50.904;4.200;2023-02-01T07:29:17;24.25;;;4.05;;
24157;SDS011;12316;50.904;4.200;2023-02-01T07:31:43;26.60;;;3.85;;
24157;SDS011;12316;50.904;4.200;2023-02-01T07:34:08;22.52;;;4.50;;
24157;SDS011;12316;50.904;4.200;2023-02-01T07:36:34;24.77;;;4.20;;
24157;SDS011;12316;50.904;4.200;2023-02-01T07:39:01;22.60;;;4.70;;
24157;SDS011;12316;50.904;4.200;2023-02-01T07:41:28;24.08;;;4.53;;
24157;SDS011;12316;50.904;4.200;2023-02-01T07:43:53;21.52;;;4.07;;
24157;SDS011;12316;50.904;4.200;2023-02-01T07:46:20;25.30;;;4.75;;
24157;SDS011;12316;50.904;4.200;2023-02-01T07:48:45;24.02;;;4.35;;
24157;SDS011;12316;50.904;4.200;2023-02-01T07:51:12;20.27;;;4.05;;
24157;SDS011;12316;50.904;4.200;2023-02-01T07:53:39;25.17;;;4.32;;
24157;SDS011;12316;50.904;4.200;2023-02-01T07:56:15;24.98;;;4.65;;
24157;SDS011;12316;50.904;4.200;2023-02-01T07:58:42;21.80;;;4.38;;
24157;SDS011;12316;50.904;4.200;2023-02-01T08:01:16;21.95;;;4.35;;
24157;SDS011;12316;50.904;4.200;2023-02-01T08:03:53;23.67;;;4.32;;
24157;SDS011;12316;50.904;4.200;2023-02-01T08:06:19;28.13;;;4.57;;
24157;SDS011;12316;50.904;4.200;2023-02-01T08:08:46;24.80;;;4.68;;
24157;SDS011;12316;50.904;4.200;2023-02-01T08:11:12;24.90;;;4.15;;
24157;SDS011;12316;50.904;4.200;2023-02-01T08:13:38;24.83;;;3.72;;
24157;SDS011;12316;50.904;4.200;2023-02-01T08:16:05;32.28;;;4.18;;
24157;SDS011;12316;50.904;4.200;2023-02-01T08:18:33;29.30;;;4.45;;
24157;SDS011;12316;50.904;4.200;2023-02-01T08:21:16;22.88;;;3.80;;
24157;SDS011;12316;50.904;4.200;2023-02-01T08:23:43;23.02;;;4.72;;
24157;SDS011;12316;50.904;4.200;2023-02-01T08:26:20;21.85;;;4.22;;
24157;SDS011;12316;50.904;4.200;2023-02-01T08:28:53;17.58;;;4.47;;
24157;SDS011;12316;50.904;4.200;2023-02-01T08:31:21;23.27;;;4.45;;
24157;SDS011;12316;50.904;4.200;2023-02-01T08:33:53;24.20;;;3.70;;
24157;SDS011;12316;50.904;4.200;2023-02-01T08:38:46;24.42;;;4.13;;
24157;SDS011;12316;50.904;4.200;2023-02-01T08:41:16;20.98;;;4.20;;
24157;SDS011;12316;50.904;4.200;2023-02-01T08:43:44;20.38;;;4.20;;
24157;SDS011;12316;50.904;4.200;2023-02-01T08:46:10;22.65;;;4.38;;
24157;SDS011;12316;50.904;4.200;2023-02-01T08:48:36;19.15;;;3.90;;
24157;SDS011;12316;50.904;4.200;2023-02-01T08:51:03;19.33;;;3.65;;
24157;SDS011;12316;50.904;4.200;2023-02-01T08:53:32;21.13;;;4.10;;
24157;SDS011;12316;50.904;4.200;2023-02-01T08:55:58;20.55;;;3.80;;
24157;SDS011;12316;50.904;4.200;2023-02-01T08:58:24;20.55;;;4.10;;
24157;SDS011;12316;50.904;4.200;2023-02-01T09:00:49;23.90;;;4.38;;
24157;SDS011;12316;50.904;4.200;2023-02-01T09:03:16;18.25;;;4.13;;
24157;SDS011;12316;50.904;4.200;2023-02-01T09:05:41;19.13;;;3.90;;
24157;SDS011;12316;50.904;4.200;2023-02-01T09:08:07;17.40;;;3.78;;
24157;SDS011;12316;50.904;4.200;2023-02-01T09:10:34;22.67;;;3.42;;
24157;SDS011;12316;50.904;4.200;2023-02-01T09:13:00;21.65;;;3.63;;
24157;SDS011;12316;50.904;4.200;2023-02-01T09:15:26;19.20;;;3.58;;
24157;SDS011;12316;50.904;4.200;2023-02-01T09:17:51;24.83;;;4.20;;
24157;SDS011;12316;50.904;4.200;2023-02-01T09:20:17;18.10;;;4.13;;
24157;SDS011;12316;50.904;4.200;2023-02-01T09:22:45;20.15;;;4.15;;
24157;SDS011;12316;50.904;4.200;2023-02-01T09:25:10;18.98;;;4.38;;
24157;SDS011;12316;50.904;4.200;2023-02-01T09:27:37;21.65;;;4.10;;
24157;SDS011;12316;50.904;4.200;2023-02-01T09:30:03;26.95;;;5.05;;
24157;SDS011;12316;50.904;4.200;2023-02-01T09:32:29;23.25;;;3.95;;
24157;SDS011;12316;50.904;4.200;2023-02-01T09:34:55;23.52;;;3.92;;
24157;SDS011;12316;50.904;4.200;2023-02-01T09:37:20;16.80;;;3.58;;
24157;SDS011;12316;50.904;4.200;2023-02-01T09:39:46;19.77;;;4.30;;
24157;SDS011;12316;50.904;4.200;2023-02-01T09:44:56;21.90;;;3.88;;
24157;SDS011;12316;50.904;4.200;2023-02-01T09:47:27;22.80;;;4.15;;
24157;SDS011;12316;50.904;4.200;2023-02-01T09:50:04;23.08;;;4.10;;
24157;SDS011;12316;50.904;4.200;2023-02-01T09:52:42;22.55;;;4.10;;
24157;SDS011;12316;50.904;4.200;2023-02-01T09:55:13;19.88;;;4.00;;
24157;SDS011;12316;50.904;4.200;2023-02-01T09:57:46;21.70;;;3.95;;
24157;SDS011;12316;50.904;4.200;2023-02-01T10:00:24;21.13;;;4.90;;
24157;SDS011;12316;50.904;4.200;2023-02-01T10:02:54;20.25;;;3.97;;
24157;SDS011;12316;50.904;4.200;2023-02-01T10:05:45;18.85;;;4.10;;
24157;SDS011;12316;50.904;4.200;2023-02-01T10:17:16;26.25;;;4.05;;
24157;SDS011;12316;50.904;4.200;2023-02-01T10:19:39;21.98;;;3.83;;
24157;SDS011;12316;50.904;4.200;2023-02-01T10:25:13;16.45;;;3.55;;
24157;SDS011;12316;50.904;4.200;2023-02-01T10:27:39;25.02;;;4.10;;
24157;SDS011;12316;50.904;4.200;2023-02-01T10:30:14;19.55;;;3.78;;
24157;SDS011;12316;50.904;4.200;2023-02-01T10:32:41;24.17;;;4.57;;
24157;SDS011;12316;50.904;4.200;2023-02-01T10:35:12;29.40;;;4.25;;
24157;SDS011;12316;50.904;4.200;2023-02-01T10:37:42;20.33;;;3.33;;
24157;SDS011;12316;50.904;4.200;2023-02-01T10:42:52;19.33;;;3.65;;
24157;SDS011;12316;50.904;4.200;2023-02-01T10:45:22;18.33;;;3.47;;
24157;SDS011;12316;50.904;4.200;2023-02-01T10:47:51;17.40;;;3.80;;
24157;SDS011;12316;50.904;4.200;2023-02-01T10:50:22;22.17;;;3.55;;
24157;SDS011;12316;50.904;4.200;2023-02-01T10:53:17;20.85;;;3.17;;
24157;SDS011;12316;50.904;4.200;2023-02-01T10:55:56;17.65;;;3.15;;
24157;SDS011;12316;50.904;4.200;2023-02-01T10:58:31;16.30;;;3.15;;
24157;SDS011;12316;50.904;4.200;2023-02-01T11:01:01;19.80;;;3.20;;
24157;SDS011;12316;50.904;4.200;2023-02-01T11:03:33;18.67;;;3.08;;
24157;SDS011;12316;50.904;4.200;2023-02-01T11:05:59;20.48;;;3.63;;
24157;SDS011;12316;50.904;4.200;2023-02-01T11:08:27;20.33;;;3.60;;
24157;SDS011;12316;50.904;4.200;2023-02-01T11:10:59;17.92;;;3.60;;
24157;SDS011;12316;50.904;4.200;2023-02-01T11:13:32;19.85;;;3.10;;
24157;SDS011;12316;50.904;4.200;2023-02-01T11:16:02;19.00;;;3.58;;
24157;SDS011;12316;50.904;4.200;2023-02-01T11:18:30;17.42;;;3.10;;
24157;SDS011;12316;50.904;4.200;2023-02-01T11:20:59;19.40;;;3.40;;
24157;SDS011;12316;50.904;4.200;2023-02-01T11:23:27;18.10;;;3.05;;
24157;SDS011;12316;50.904;4.200;2023-02-01T11:25:58;16.00;;;3.08;;
24157;SDS011;12316;50.904;4.200;2023-02-01T11:28:37;19.95;;;3.42;;
24157;SDS011;12316;50.904;4.200;2023-02-01T11:31:06;14.77;;;3.33;;
24157;SDS011;12316;50.904;4.200;2023-02-01T11:33:35;15.50;;;2.65;;
24157;SDS011;12316;50.904;4.200;2023-02-01T11:36:13;15.93;;;3.38;;
24157;SDS011;12316;50.904;4.200;2023-02-01T11:38:51;20.48;;;3.88;;
24157;SDS011;12316;50.904;4.200;2023-02-01T11:41:23;17.45;;;3.08;;
24157;SDS011;12316;50.904;4.200;2023-02-01T11:43:51;12.93;;;2.90;;
24157;SDS011;12316;50.904;4.200;2023-02-01T11:46:40;16.15;;;2.60;;
24157;SDS011;12316;50.904;4.200;2023-02-01T11:49:23;22.42;;;3.10;;
24157;SDS011;12316;50.904;4.200;2023-02-01T11:57:00;18.85;;;3.10;;
24157;SDS011;12316;50.904;4.200;2023-02-01T12:10:28;14.60;;;2.70;;
24157;SDS011;12316;50.904;4.200;2023-02-01T12:19:11;12.27;;;1.80;;
24157;SDS011;12316;50.904;4.200;2023-02-01T12:22:14;13.45;;;2.05;;
24157;SDS011;12316;50.904;4.200;2023-02-01T12:46:16;11.27;;;2.38;;
24157;SDS011;12316;50.904;4.200;2023-02-01T12:51:26;15.65;;;2.38;;
24157;SDS011;12316;50.904;4.200;2023-02-01T12:54:32;12.45;;;2.58;;
24157;SDS011;12316;50.904;4.200;2023-02-01T12:57:09;10.73;;;2.22;;
24157;SDS011;12316;50.904;4.200;2023-02-01T13:00:19;10.90;;;2.00;;
24157;SDS011;12316;50.904;4.200;2023-02-01T13:02:54;8.45;;;2.10;;
24157;SDS011;12316;50.904;4.200;2023-02-01T13:05:41;12.85;;;2.58;;
24157;SDS011;12316;50.904;4.200;2023-02-01T13:08:12;12.40;;;2.35;;
24157;SDS011;12316;50.904;4.200;2023-02-01T13:14:11;10.65;;;2.30;;
24157;SDS011;12316;50.904;4.200;2023-02-01T13:16:41;15.57;;;2.80;;
24157;SDS011;12316;50.904;4.200;2023-02-01T13:19:29;12.60;;;3.10;;
24157;SDS011;12316;50.904;4.200;2023-02-01T13:21:59;14.02;;;2.60;;
24157;SDS011;12316;50.904;4.200;2023-02-01T13:24:35;12.02;;;2.30;;
24157;SDS011;12316;50.904;4.200;2023-02-01T13:27:14;10.70;;;2.33;;
24157;SDS011;12316;50.904;4.200;2023-02-01T13:29:46;12.30;;;1.98;;
24157;SDS011;12316;50.904;4.200;2023-02-01T13:33:29;10.25;;;2.35;;
24157;SDS011;12316;50.904;4.200;2023-02-01T13:35:45;8.95;;;2.55;;
24157;SDS011;12316;50.904;4.200;2023-02-01T13:41:39;15.35;;;2.90;;
24157;SDS011;12316;50.904;4.200;2023-02-01T13:44:55;15.80;;;2.92;;
24157;SDS011;12316;50.904;4.200;2023-02-01T13:47:24;11.55;;;2.55;;
24157;SDS011;12316;50.904;4.200;2023-02-01T13:50:01;12.35;;;2.28;;
24157;SDS011;12316;50.904;4.200;2023-02-01T13:52:40;9.48;;;2.00;;
24157;SDS011;12316;50.904;4.200;2023-02-01T13:57:47;14.82;;;2.60;;
24157;SDS011;12316;50.904;4.200;2023-02-01T14:00:24;9.82;;;2.05;;
24157;SDS011;12316;50.904;4.200;2023-02-01T14:21:46;16.08;;;2.90;;
24157;SDS011;12316;50.904;4.200;2023-02-01T14:37:28;13.95;;;2.47;;
24157;SDS011;12316;50.904;4.200;2023-02-01T14:47:44;15.40;;;3.53;;
24157;SDS011;12316;50.904;4.200;2023-02-01T14:53:02;15.73;;;2.90;;
24157;SDS011;12316;50.904;4.200;2023-02-01T14:58:01;13.32;;;2.80;;
24157;SDS011;12316;50.904;4.200;2023-02-01T15:00:31;18.20;;;3.03;;
24157;SDS011;12316;50.904;4.200;2023-02-01T15:06:13;11.65;;;2.58;;
24157;SDS011;12316;50.904;4.200;2023-02-01T15:09:15;19.40;;;2.83;;
24157;SDS011;12316;50.904;4.200;2023-02-01T15:11:56;11.32;;;2.45;;
24157;SDS011;12316;50.904;4.200;2023-02-01T15:14:43;15.88;;;3.38;;
24157;SDS011;12316;50.904;4.200;2023-02-01T15:17:20;16.77;;;2.53;;
24157;SDS011;12316;50.904;4.200;2023-02-01T15:19:55;18.30;;;2.90;;
24157;SDS011;12316;50.904;4.200;2023-02-01T15:22:23;12.50;;;2.67;;
24157;SDS011;12316;50.904;4.200;2023-02-01T15:24:52;12.68;;;2.85;;
24157;SDS011;12316;50.904;4.200;2023-02-01T15:27:19;12.35;;;2.58;;
24157;SDS011;12316;50.904;4.200;2023-02-01T15:29:45;18.77;;;3.25;;
24157;SDS011;12316;50.904;4.200;2023-02-01T15:32:30;11.68;;;2.42;;
24157;SDS011;12316;50.904;4.200;2023-02-01T15:34:58;14.38;;;3.47;;
24157;SDS011;12316;50.904;4.200;2023-02-01T15:37:27;20.35;;;2.80;;
24157;SDS011;12316;50.904;4.200;2023-02-01T15:42:57;11.98;;;2.65;;
24157;SDS011;12316;50.904;4.200;2023-02-01T15:45:25;18.33;;;3.13;;
24157;SDS011;12316;50.904;4.200;2023-02-01T15:47:52;19.60;;;3.40;;
24157;SDS011;12316;50.904;4.200;2023-02-01T15:50:20;20.33;;;3.25;;
24157;SDS011;12316;50.904;4.200;2023-02-01T15:52:48;17.25;;;3.72;;
24157;SDS011;12316;50.904;4.200;2023-02-01T15:55:20;21.40;;;3.08;;
24157;SDS011;12316;50.904;4.200;2023-02-01T15:57:57;15.67;;;3.40;;
24157;SDS011;12316;50.904;4.200;2023-02-01T16:00:24;14.95;;;3.40;;
24157;SDS011;12316;50.904;4.200;2023-02-01T16:02:54;18.10;;;3.40;;
24157;SDS011;12316;50.904;4.200;2023-02-01T16:10:38;16.63;;;3.33;;
24157;SDS011;12316;50.904;4.200;2023-02-01T16:13:08;19.33;;;3.53;;
24157;SDS011;12316;50.904;4.200;2023-02-01T16:15:35;14.52;;;3.05;;
24157;SDS011;12316;50.904;4.200;2023-02-01T16:18:01;21.77;;;3.13;;
24157;SDS011;12316;50.904;4.200;2023-02-01T16:20:26;20.35;;;3.40;;
24157;SDS011;12316;50.904;4.200;2023-02-01T16:22:52;13.77;;;2.78;;
24157;SDS011;12316;50.904;4.200;2023-02-01T16:25:18;21.00;;;3.92;;
24157;SDS011;12316;50.904;4.200;2023-02-01T16:27:44;21.05;;;3.72;;
24157;SDS011;12316;50.904;4.200;2023-02-01T16:30:09;14.55;;;3.47;;
24157;SDS011;12316;50.904;4.200;2023-02-01T16:32:35;18.92;;;4.35;;
24157;SDS011;12316;50.904;4.200;2023-02-01T16:35:03;23.77;;;6.00;;
24157;SDS011;12316;50.904;4.200;2023-02-01T16:37:32;21.30;;;3.60;;
24157;SDS011;12316;50.904;4.200;2023-02-01T16:40:01;24.00;;;3.13;;
24157;SDS011;12316;50.904;4.200;2023-02-01T16:42:26;18.02;;;3.70;;
24157;SDS011;12316;50.904;4.200;2023-02-01T16:44:55;16.25;;;3.42;;
24157;SDS011;12316;50.904;4.200;2023-02-01T16:47:21;17.00;;;3.30;;
24157;SDS011;12316;50.904;4.200;2023-02-01T16:49:48;19.30;;;4.03;;
24157;SDS011;12316;50.904;4.200;2023-02-01T16:52:17;17.65;;;3.70;;
24157;SDS011;12316;50.904;4.200;2023-02-01T16:54:46;20.13;;;3.50;;
24157;SDS011;12316;50.904;4.200;2023-02-01T16:57:13;21.27;;;3.75;;
24157;SDS011;12316;50.904;4.200;2023-02-01T16:59:40;17.65;;;3.58;;
24157;SDS011;12316;50.904;4.200;2023-02-01T17:02:09;23.75;;;3.88;;
24157;SDS011;12316;50.904;4.200;2023-02-01T17:04:37;23.73;;;3.65;;
24157;SDS011;12316;50.904;4.200;2023-02-01T17:07:02;20.55;;;4.05;;
24157;SDS011;12316;50.904;4.200;2023-02-01T17:09:34;23.17;;;3.90;;
24157;SDS011;12316;50.904;4.200;2023-02-01T17:12:01;17.13;;;3.42;;
24157;SDS011;12316;50.904;4.200;2023-02-01T17:14:29;18.67;;;3.85;;
24157;SDS011;12316;50.904;4.200;2023-02-01T17:16:56;17.65;;;3.65;;
24157;SDS011;12316;50.904;4.200;2023-02-01T17:19:22;21.63;;;4.68;;
24157;SDS011;12316;50.904;4.200;2023-02-01T17:21:50;15.68;;;4.18;;
24157;SDS011;12316;50.904;4.200;2023-02-01T17:24:22;18.33;;;3.65;;
24157;SDS011;12316;50.904;4.200;2023-02-01T17:26:49;19.85;;;3.88;;
24157;SDS011;12316;50.904;4.200;2023-02-01T17:29:16;23.13;;;4.15;;
24157;SDS011;12316;50.904;4.200;2023-02-01T17:31:47;22.92;;;4.18;;
24157;SDS011;12316;50.904;4.200;2023-02-01T17:34:15;18.35;;;3.63;;
24157;SDS011;12316;50.904;4.200;2023-02-01T17:36:42;20.73;;;3.88;;
24157;SDS011;12316;50.904;4.200;2023-02-01T17:39:09;17.63;;;4.00;;
24157;SDS011;12316;50.904;4.200;2023-02-01T17:41:36;20.40;;;4.00;;
24157;SDS011;12316;50.904;4.200;2023-02-01T17:44:02;21.92;;;4.28;;
24157;SDS011;12316;50.904;4.200;2023-02-01T17:46:29;18.65;;;4.22;;
24157;SDS011;12316;50.904;4.200;2023-02-01T17:48:56;17.58;;;3.95;;
24157;SDS011;12316;50.904;4.200;2023-02-01T17:51:25;22.85;;;4.53;;
24157;SDS011;12316;50.904;4.200;2023-02-01T17:53:52;25.17;;;3.88;;